ダッカ の空港の天気 - METARとTAF

シャージャラル国際空港(ダッカ) ( VGHS / DAC ) - バングラデシュ ダッカ
飛行場実況気象(Metar)
観測時間11/18 17:30 BDT (11/18 11:30 UTC)
風向・風速北西 2m/s
視程4000m
天気現象煙霧
全天の4割程度の雲 雲底高度 460m
全天の8割程度の雲 雲底高度 3050m
気温28℃
湿度70%
気圧1010hPa
METARVGHS 181130Z 32004KT 4000 HZ SCT015 BKN100 28/22 Q1010 NOSIG
過去の天気等 Google飛行場航空写真 Wunderground天気予報

過去48時間のMETAR

飛行場予報(TAF)
発表時間: 11/18 17:00 BDT (11/18 11:00 UTC)
予報対象時間: 18日18時 BDT ~ 20日0時 BDT
風向・風速北 3m/s
視程3,500m
天気現象煙霧
全天の4割程度の雲 雲底高度 460m
全天の8割程度の雲 雲底高度 3,050m
19日5時 BDT ~ 19日7時 BDT に徐々に
風向・風速静穏
視程2,500m
19日10時 BDT ~ 19日12時 BDT に徐々に
風向・風速北 3m/s
視程3,500m
天気現象煙霧
全天の4割程度の雲 雲底高度 3,050m
19日18時 BDT ~ 19日20時 BDT に徐々に
風向・風速北北東 3m/s
視程4,000m
天気現象煙霧
なし
19日22時 BDT ~ 19日24時 BDT に徐々に
風向・風速北北東 3m/s
視程3,500m
天気現象煙霧
全天の4割程度の雲 雲底高度 370m
全天の4割程度の雲 雲底高度 3,050m
TAF VGHS 181100Z 1812/1918 35005KT 3500 HZ SCT015 BKN100
BECMG 1823/1901 00000KT 2500 HZ/BR SCT010 SCT100
BECMG 1904/1906 36005KT 3500 HZ SCT100
BECMG 1912/1914 02006KT 4000 HZ NSC
BECMG 1916/1918 03005KT 3500 HZ SCT012 SCT100